W55 EFRO-EFUT
Flight info
| Callsign | W55 |
|---|---|
| Flight time | 1h 15m |
| Altitude | 41000 |
| Route | RENVI DCT EVSET DCT UGLUM DCT ADOPO |
| Aircraft | LJ35/M-SGHRWXY/SB1 |
Departure
| Time | 2026-04-26 11:46 |
|---|---|
| Airport | Rovaniemi Airport (EFRO) |
Arrival
| Time | 2026-04-26 13:01 |
|---|---|
| Airport | Utti Air Base (EFUT) |
| Time | Latitude | Longitude | Altitude | Speed | Heading |
|---|---|---|---|---|---|
| 2026-04-26 11:38 | 66.56986 | 25.83217 | 636 ft | 0 kts | 262° |
| 2026-04-26 11:43 | 66.56955 | 25.83160 | 636 ft | 11 kts | 169° |
| 2026-04-26 11:44 | 66.56875 | 25.83080 | 639 ft | 14 kts | 219° |
| 2026-04-26 11:44 | 66.56789 | 25.82892 | 644 ft | 20 kts | 218° |
| 2026-04-26 11:44 | 66.56656 | 25.82654 | 640 ft | 28 kts | 214° |
| 2026-04-26 11:44 | 66.56487 | 25.82340 | 632 ft | 26 kts | 218° |
| 2026-04-26 11:45 | 66.56328 | 25.82436 | 625 ft | 31 kts | 118° |
| 2026-04-26 11:45 | 66.56334 | 25.82751 | 624 ft | 6 kts | 37° |
| 2026-04-26 11:45 | 66.56335 | 25.82753 | 624 ft | 0 kts | 37° |
| 2026-04-26 11:45 | 66.56409 | 25.82891 | 624 ft | 60 kts | 37° |
| 2026-04-26 11:46 | 66.57120 | 25.84243 | 837 ft | 175 kts | 34° |
| 2026-04-26 11:46 | 66.58224 | 25.86270 | 2263 ft | 231 kts | 34° |
| 2026-04-26 11:46 | 66.59538 | 25.89244 | 3983 ft | 273 kts | 47° |
| 2026-04-26 11:46 | 66.60393 | 25.93392 | 5609 ft | 263 kts | 69° |
| 2026-04-26 11:47 | 66.60414 | 25.98188 | 6995 ft | 289 kts | 98° |
| 2026-04-26 11:47 | 66.59615 | 26.02976 | 9155 ft | 308 kts | 122° |
| 2026-04-26 11:47 | 66.58025 | 26.06676 | 11401 ft | 318 kts | 146° |
| 2026-04-26 11:47 | 66.55931 | 26.08503 | 13728 ft | 323 kts | 171° |
| 2026-04-26 11:48 | 66.53705 | 26.08113 | 15877 ft | 321 kts | 194° |
| 2026-04-26 11:48 | 66.51648 | 26.05733 | 17641 ft | 333 kts | 211° |
| 2026-04-26 11:48 | 66.49706 | 26.02429 | 19079 ft | 340 kts | 215° |
| 2026-04-26 11:48 | 66.47714 | 25.99119 | 20355 ft | 355 kts | 213° |
| 2026-04-26 11:49 | 66.45367 | 25.96105 | 20353 ft | 399 kts | 203° |
| 2026-04-26 11:49 | 66.42822 | 25.93604 | 22039 ft | 394 kts | 201° |
| 2026-04-26 11:49 | 66.40253 | 25.90941 | 23118 ft | 405 kts | 205° |
| 2026-04-26 11:49 | 66.37706 | 25.87801 | 24080 ft | 411 kts | 208° |
| 2026-04-26 11:50 | 66.35126 | 25.84594 | 24961 ft | 418 kts | 206° |
| 2026-04-26 11:50 | 66.32456 | 25.81560 | 25797 ft | 425 kts | 205° |
| 2026-04-26 11:50 | 66.30660 | 25.79578 | 26327 ft | 429 kts | 205° |
| 2026-04-26 11:50 | 66.27926 | 25.76457 | 27100 ft | 435 kts | 206° |
| 2026-04-26 11:51 | 66.25176 | 25.73212 | 27820 ft | 441 kts | 207° |
| 2026-04-26 11:51 | 66.22382 | 25.69969 | 28519 ft | 446 kts | 206° |
| 2026-04-26 11:51 | 66.19537 | 25.66747 | 29172 ft | 452 kts | 206° |
| 2026-04-26 11:51 | 66.16662 | 25.63484 | 29784 ft | 457 kts | 206° |
| 2026-04-26 11:52 | 66.13762 | 25.60158 | 30271 ft | 462 kts | 207° |
| 2026-04-26 11:52 | 66.10832 | 25.56822 | 30697 ft | 467 kts | 206° |
| 2026-04-26 11:52 | 66.07734 | 25.54253 | 31090 ft | 473 kts | 195° |
| 2026-04-26 11:52 | 66.04469 | 25.52999 | 31449 ft | 479 kts | 185° |
| 2026-04-26 11:53 | 66.01117 | 25.52752 | 31769 ft | 482 kts | 182° |
| 2026-04-26 11:53 | 65.97748 | 25.52576 | 32038 ft | 485 kts | 182° |
| 2026-04-26 11:53 | 65.94360 | 25.52371 | 32265 ft | 488 kts | 182° |
| 2026-04-26 11:54 | 65.87545 | 25.51940 | 32569 ft | 492 kts | 182° |
| 2026-04-26 11:54 | 65.84119 | 25.51744 | 32670 ft | 493 kts | 182° |
| 2026-04-26 11:54 | 65.80736 | 25.51545 | 32737 ft | 494 kts | 182° |
| 2026-04-26 11:55 | 65.73848 | 25.51124 | 32808 ft | 495 kts | 182° |
| 2026-04-26 11:55 | 65.66963 | 25.50720 | 32829 ft | 495 kts | 182° |
| 2026-04-26 11:56 | 65.60069 | 25.50310 | 32846 ft | 495 kts | 182° |
| 2026-04-26 11:56 | 65.53330 | 25.49916 | 32829 ft | 464 kts | 182° |
| 2026-04-26 11:56 | 65.50164 | 25.49732 | 32810 ft | 449 kts | 182° |
| 2026-04-26 11:57 | 65.46991 | 25.49543 | 33035 ft | 458 kts | 182° |
| 2026-04-26 11:57 | 65.43797 | 25.49355 | 33616 ft | 461 kts | 182° |
| 2026-04-26 11:57 | 65.40573 | 25.49168 | 33992 ft | 466 kts | 182° |
| 2026-04-26 11:57 | 65.37326 | 25.48981 | 34374 ft | 469 kts | 182° |
| 2026-04-26 11:58 | 65.34053 | 25.48792 | 34716 ft | 472 kts | 182° |
| 2026-04-26 11:58 | 65.30757 | 25.48601 | 35054 ft | 475 kts | 182° |
| 2026-04-26 11:58 | 65.27442 | 25.48410 | 35365 ft | 478 kts | 182° |
| 2026-04-26 11:58 | 65.24104 | 25.48218 | 35645 ft | 481 kts | 182° |
| 2026-04-26 11:59 | 65.20754 | 25.48026 | 35901 ft | 483 kts | 182° |
| 2026-04-26 11:59 | 65.17384 | 25.47834 | 36114 ft | 486 kts | 182° |
| 2026-04-26 11:59 | 65.14039 | 25.47643 | 36297 ft | 488 kts | 182° |
| 2026-04-26 11:59 | 65.10638 | 25.47450 | 36453 ft | 490 kts | 182° |
| 2026-04-26 12:00 | 65.07228 | 25.47256 | 36581 ft | 491 kts | 182° |
| 2026-04-26 12:00 | 65.00391 | 25.48181 | 36754 ft | 495 kts | 169° |
| 2026-04-26 12:01 | 64.93953 | 25.53895 | 36855 ft | 497 kts | 150° |
| 2026-04-26 12:01 | 64.88073 | 25.62499 | 36914 ft | 497 kts | 148° |
| 2026-04-26 12:02 | 64.82177 | 25.71096 | 36923 ft | 490 kts | 148° |
| 2026-04-26 12:02 | 64.79377 | 25.75169 | 36922 ft | 460 kts | 148° |
| 2026-04-26 12:02 | 64.76765 | 25.78965 | 36903 ft | 435 kts | 148° |
| 2026-04-26 12:03 | 64.71631 | 25.86393 | 37481 ft | 435 kts | 148° |
| 2026-04-26 12:03 | 64.69041 | 25.90126 | 37903 ft | 439 kts | 148° |
| 2026-04-26 12:03 | 64.66430 | 25.93884 | 38295 ft | 443 kts | 148° |
| 2026-04-26 12:03 | 64.63797 | 25.97663 | 38651 ft | 446 kts | 148° |
| 2026-04-26 12:04 | 64.61143 | 26.01461 | 38962 ft | 449 kts | 148° |
| 2026-04-26 12:04 | 64.58473 | 26.05274 | 39284 ft | 451 kts | 148° |
| 2026-04-26 12:04 | 64.55788 | 26.09101 | 39576 ft | 454 kts | 148° |
| 2026-04-26 12:04 | 64.53087 | 26.12943 | 39869 ft | 457 kts | 148° |
| 2026-04-26 12:05 | 64.50367 | 26.16800 | 40147 ft | 459 kts | 148° |
| 2026-04-26 12:05 | 64.47635 | 26.20665 | 40433 ft | 461 kts | 148° |
| 2026-04-26 12:05 | 64.44887 | 26.24545 | 40705 ft | 464 kts | 149° |
| 2026-04-26 12:06 | 64.39284 | 26.32425 | 40784 ft | 479 kts | 149° |
| 2026-04-26 12:06 | 64.33518 | 26.40499 | 40791 ft | 489 kts | 149° |
| 2026-04-26 12:07 | 64.27745 | 26.48538 | 40788 ft | 479 kts | 149° |
| 2026-04-26 12:07 | 64.22095 | 26.56372 | 40775 ft | 470 kts | 149° |
| 2026-04-26 12:08 | 64.16518 | 26.64063 | 40765 ft | 465 kts | 149° |
| 2026-04-26 12:08 | 64.11011 | 26.71629 | 40755 ft | 468 kts | 149° |
| 2026-04-26 12:09 | 64.05370 | 26.79336 | 40752 ft | 477 kts | 149° |
| 2026-04-26 12:09 | 63.99648 | 26.87117 | 40760 ft | 482 kts | 149° |
| 2026-04-26 12:10 | 63.93855 | 26.94958 | 40757 ft | 485 kts | 149° |
| 2026-04-26 12:10 | 63.88048 | 27.02777 | 40755 ft | 486 kts | 149° |
| 2026-04-26 12:11 | 63.82223 | 27.10585 | 40752 ft | 486 kts | 149° |
| 2026-04-26 12:11 | 63.76395 | 27.18357 | 40748 ft | 486 kts | 150° |
| 2026-04-26 12:12 | 63.70555 | 27.26109 | 40740 ft | 486 kts | 150° |
| 2026-04-26 12:12 | 63.64718 | 27.33819 | 40739 ft | 486 kts | 150° |
| 2026-04-26 12:13 | 63.58877 | 27.41498 | 40731 ft | 486 kts | 150° |
| 2026-04-26 12:13 | 63.53033 | 27.49144 | 40728 ft | 486 kts | 150° |
| 2026-04-26 12:14 | 63.47204 | 27.56626 | 40718 ft | 486 kts | 154° |
| 2026-04-26 12:14 | 63.40794 | 27.61066 | 40700 ft | 483 kts | 173° |
| 2026-04-26 12:15 | 63.34127 | 27.60871 | 40696 ft | 479 kts | 191° |
| 2026-04-26 12:15 | 63.27589 | 27.58038 | 40696 ft | 479 kts | 192° |
| 2026-04-26 12:16 | 63.21040 | 27.55239 | 40704 ft | 479 kts | 192° |
| 2026-04-26 12:16 | 63.14498 | 27.52425 | 40706 ft | 479 kts | 192° |
| 2026-04-26 12:17 | 63.07948 | 27.49641 | 40694 ft | 479 kts | 192° |
| 2026-04-26 12:17 | 63.01397 | 27.46858 | 40692 ft | 480 kts | 192° |
| 2026-04-26 12:18 | 62.94841 | 27.44092 | 40698 ft | 480 kts | 192° |
| 2026-04-26 12:18 | 62.88285 | 27.41333 | 40700 ft | 480 kts | 192° |
| 2026-04-26 12:19 | 62.81769 | 27.38609 | 40695 ft | 480 kts | 192° |
| 2026-04-26 12:19 | 62.75204 | 27.35874 | 40695 ft | 480 kts | 193° |
| 2026-04-26 12:20 | 62.68638 | 27.33151 | 40695 ft | 481 kts | 192° |
| 2026-04-26 12:20 | 62.62065 | 27.30435 | 40700 ft | 481 kts | 192° |
| 2026-04-26 12:21 | 62.55513 | 27.27747 | 40493 ft | 470 kts | 193° |
| 2026-04-26 12:21 | 62.52294 | 27.26422 | 39302 ft | 473 kts | 193° |
| 2026-04-26 12:21 | 62.49076 | 27.25102 | 38542 ft | 466 kts | 192° |
| 2026-04-26 12:21 | 62.45911 | 27.23819 | 37712 ft | 460 kts | 192° |
| 2026-04-26 12:22 | 62.42791 | 27.22553 | 36927 ft | 452 kts | 193° |
| 2026-04-26 12:22 | 62.39722 | 27.21302 | 36173 ft | 446 kts | 193° |
| 2026-04-26 12:22 | 62.36695 | 27.20072 | 35482 ft | 439 kts | 193° |
| 2026-04-26 12:22 | 62.33709 | 27.18868 | 34810 ft | 433 kts | 193° |
| 2026-04-26 12:23 | 62.30758 | 27.17678 | 34158 ft | 428 kts | 193° |
| 2026-04-26 12:23 | 62.27854 | 27.16508 | 33500 ft | 422 kts | 193° |
| 2026-04-26 12:23 | 62.24983 | 27.15352 | 32814 ft | 416 kts | 193° |
| 2026-04-26 12:23 | 62.22157 | 27.14220 | 32149 ft | 411 kts | 193° |
| 2026-04-26 12:24 | 62.19369 | 27.13104 | 31518 ft | 405 kts | 193° |
| 2026-04-26 12:24 | 62.16617 | 27.12004 | 30910 ft | 399 kts | 193° |
| 2026-04-26 12:24 | 62.13908 | 27.10919 | 30340 ft | 394 kts | 193° |
| 2026-04-26 12:25 | 62.08585 | 27.08805 | 29150 ft | 383 kts | 193° |
| 2026-04-26 12:25 | 62.05989 | 27.07776 | 28589 ft | 376 kts | 192° |
| 2026-04-26 12:25 | 62.03442 | 27.06763 | 28035 ft | 369 kts | 192° |
| 2026-04-26 12:25 | 62.00945 | 27.05773 | 27486 ft | 362 kts | 192° |
| 2026-04-26 12:26 | 61.98518 | 27.04817 | 26972 ft | 355 kts | 192° |
| 2026-04-26 12:26 | 61.96081 | 27.03856 | 26452 ft | 349 kts | 192° |
| 2026-04-26 12:26 | 61.93716 | 27.02925 | 25959 ft | 343 kts | 191° |
| 2026-04-26 12:26 | 61.91390 | 27.02011 | 25480 ft | 337 kts | 191° |
| 2026-04-26 12:27 | 61.89106 | 27.01115 | 25009 ft | 331 kts | 191° |
| 2026-04-26 12:27 | 61.86862 | 27.00235 | 24565 ft | 326 kts | 191° |
| 2026-04-26 12:27 | 61.84684 | 26.99383 | 24147 ft | 320 kts | 191° |
| 2026-04-26 12:27 | 61.82510 | 26.98535 | 23715 ft | 315 kts | 190° |
| 2026-04-26 12:28 | 61.80375 | 26.97700 | 23317 ft | 309 kts | 190° |
| 2026-04-26 12:28 | 61.78272 | 26.96881 | 22803 ft | 306 kts | 190° |
| 2026-04-26 12:28 | 61.76179 | 26.96068 | 22210 ft | 305 kts | 190° |
| 2026-04-26 12:28 | 61.74094 | 26.95258 | 21633 ft | 304 kts | 190° |
| 2026-04-26 12:29 | 61.72034 | 26.94458 | 20741 ft | 301 kts | 190° |
| 2026-04-26 12:29 | 61.69965 | 26.93656 | 19871 ft | 302 kts | 191° |
| 2026-04-26 12:29 | 61.65846 | 26.92065 | 18238 ft | 300 kts | 191° |
| 2026-04-26 12:30 | 61.63796 | 26.91273 | 17382 ft | 300 kts | 191° |
| 2026-04-26 12:30 | 61.61749 | 26.90484 | 16548 ft | 298 kts | 191° |
| 2026-04-26 12:30 | 61.59709 | 26.89700 | 15793 ft | 301 kts | 191° |
| 2026-04-26 12:31 | 61.55633 | 26.88135 | 15079 ft | 297 kts | 191° |
| 2026-04-26 12:31 | 61.53603 | 26.87357 | 14698 ft | 296 kts | 191° |
| 2026-04-26 12:31 | 61.51577 | 26.86581 | 14322 ft | 296 kts | 191° |
| 2026-04-26 12:31 | 61.49541 | 26.85803 | 14123 ft | 298 kts | 191° |
| 2026-04-26 12:32 | 61.47511 | 26.85029 | 14055 ft | 296 kts | 191° |
| 2026-04-26 12:32 | 61.45484 | 26.84254 | 13948 ft | 296 kts | 191° |
| 2026-04-26 12:32 | 61.41397 | 26.83231 | 13739 ft | 297 kts | 175° |
| 2026-04-26 12:33 | 61.39344 | 26.83685 | 13651 ft | 297 kts | 174° |
| 2026-04-26 12:33 | 61.37286 | 26.84113 | 13557 ft | 297 kts | 174° |
| 2026-04-26 12:33 | 61.35226 | 26.84523 | 13453 ft | 298 kts | 174° |
| 2026-04-26 12:33 | 61.33158 | 26.84946 | 13358 ft | 298 kts | 174° |
| 2026-04-26 12:34 | 61.31095 | 26.85378 | 13249 ft | 298 kts | 174° |
| 2026-04-26 12:34 | 61.29030 | 26.85806 | 13163 ft | 298 kts | 174° |
| 2026-04-26 12:34 | 61.26961 | 26.86229 | 13062 ft | 299 kts | 174° |
| 2026-04-26 12:34 | 61.24892 | 26.86652 | 12982 ft | 299 kts | 174° |
| 2026-04-26 12:35 | 61.22823 | 26.87076 | 12889 ft | 299 kts | 174° |
| 2026-04-26 12:35 | 61.20756 | 26.87500 | 12799 ft | 299 kts | 174° |
| 2026-04-26 12:35 | 61.18683 | 26.87924 | 12699 ft | 300 kts | 173° |
| 2026-04-26 12:35 | 61.16612 | 26.88347 | 12628 ft | 299 kts | 174° |
| 2026-04-26 12:36 | 61.14538 | 26.88769 | 12550 ft | 299 kts | 174° |
| 2026-04-26 12:36 | 61.12470 | 26.89190 | 12271 ft | 298 kts | 174° |
| 2026-04-26 12:36 | 61.10395 | 26.89614 | 11858 ft | 299 kts | 173° |
| 2026-04-26 12:36 | 61.08354 | 26.90027 | 11389 ft | 299 kts | 173° |
| 2026-04-26 12:37 | 61.06291 | 26.90445 | 10938 ft | 298 kts | 173° |
| 2026-04-26 12:37 | 61.04239 | 26.90260 | 10431 ft | 295 kts | 194° |
| 2026-04-26 12:37 | 61.02426 | 26.88394 | 9784 ft | 291 kts | 222° |
| 2026-04-26 12:37 | 61.01036 | 26.85437 | 9158 ft | 286 kts | 233° |
| 2026-04-26 12:38 | 60.99696 | 26.82423 | 8540 ft | 285 kts | 229° |
| 2026-04-26 12:38 | 60.98207 | 26.79749 | 7950 ft | 284 kts | 222° |
| 2026-04-26 12:38 | 60.96653 | 26.77247 | 7372 ft | 282 kts | 223° |
| 2026-04-26 12:38 | 60.95151 | 26.74687 | 6799 ft | 279 kts | 225° |
| 2026-04-26 12:39 | 60.93687 | 26.72080 | 6255 ft | 277 kts | 226° |
| 2026-04-26 12:39 | 60.92225 | 26.69517 | 5717 ft | 275 kts | 225° |
| 2026-04-26 12:39 | 60.90763 | 26.66996 | 5190 ft | 272 kts | 226° |
| 2026-04-26 12:39 | 60.89324 | 26.64518 | 4540 ft | 268 kts | 226° |
| 2026-04-26 12:40 | 60.87842 | 26.62211 | 3883 ft | 270 kts | 211° |
| 2026-04-26 12:40 | 60.85996 | 26.62036 | 2880 ft | 283 kts | 143° |
| 2026-04-26 12:40 | 60.85348 | 26.65216 | 2385 ft | 234 kts | 70° |
| 2026-04-26 12:40 | 60.85633 | 26.67264 | 2271 ft | 217 kts | 64° |
| 2026-04-26 12:41 | 60.86088 | 26.70083 | 2178 ft | 197 kts | 61° |
| 2026-04-26 12:41 | 60.86501 | 26.72622 | 2160 ft | 179 kts | 60° |
| 2026-04-26 12:41 | 60.86876 | 26.74957 | 2013 ft | 167 kts | 61° |
| 2026-04-26 12:41 | 60.87199 | 26.77201 | 1787 ft | 162 kts | 62° |
| 2026-04-26 12:42 | 60.87521 | 26.79368 | 1562 ft | 156 kts | 61° |
| 2026-04-26 12:42 | 60.87820 | 26.81339 | 1263 ft | 130 kts | 58° |
| 2026-04-26 12:42 | 60.88176 | 26.83036 | 939 ft | 129 kts | 52° |
| 2026-04-26 12:42 | 60.88560 | 26.84750 | 668 ft | 139 kts | 58° |
| 2026-04-26 12:43 | 60.88879 | 26.86638 | 542 ft | 142 kts | 64° |
| 2026-04-26 12:43 | 60.89101 | 26.88609 | 540 ft | 137 kts | 64° |
| 2026-04-26 12:43 | 60.89301 | 26.90578 | 466 ft | 143 kts | 69° |
| 2026-04-26 12:43 | 60.89504 | 26.92565 | 354 ft | 138 kts | 68° |
| 2026-04-26 12:44 | 60.89675 | 26.94316 | 352 ft | 114 kts | 64° |
| 2026-04-26 12:44 | 60.89919 | 26.96258 | 679 ft | 182 kts | 64° |
| 2026-04-26 12:44 | 60.89571 | 26.99023 | 2321 ft | 269 kts | 152° |
| 2026-04-26 12:44 | 60.87694 | 26.97823 | 3604 ft | 297 kts | 229° |
| 2026-04-26 12:45 | 60.86501 | 26.94837 | 4268 ft | 244 kts | 248° |
| 2026-04-26 12:45 | 60.85749 | 26.91942 | 4293 ft | 217 kts | 250° |
| 2026-04-26 12:45 | 60.85056 | 26.89432 | 4473 ft | 191 kts | 248° |
| 2026-04-26 12:45 | 60.84319 | 26.87128 | 4169 ft | 207 kts | 244° |
| 2026-04-26 12:46 | 60.83422 | 26.84787 | 4468 ft | 201 kts | 236° |
| 2026-04-26 12:46 | 60.82432 | 26.82537 | 4196 ft | 222 kts | 238° |
| 2026-04-26 12:46 | 60.81455 | 26.80071 | 4264 ft | 218 kts | 245° |
| 2026-04-26 12:46 | 60.80642 | 26.77318 | 3896 ft | 234 kts | 249° |
| 2026-04-26 12:47 | 60.79960 | 26.74279 | 3779 ft | 232 kts | 258° |
| 2026-04-26 12:47 | 60.79477 | 26.71163 | 3776 ft | 229 kts | 264° |
| 2026-04-26 12:47 | 60.79324 | 26.68057 | 3660 ft | 215 kts | 292° |
| 2026-04-26 12:47 | 60.80180 | 26.65831 | 3683 ft | 193 kts | 336° |
| 2026-04-26 12:48 | 60.81488 | 26.65365 | 3623 ft | 193 kts | 358° |
| 2026-04-26 12:48 | 60.82857 | 26.65451 | 3302 ft | 199 kts | 2° |
| 2026-04-26 12:48 | 60.84072 | 26.66413 | 3274 ft | 182 kts | 26° |
| 2026-04-26 12:48 | 60.85112 | 26.67941 | 2811 ft | 185 kts | 30° |
| 2026-04-26 12:49 | 60.86039 | 26.69524 | 2434 ft | 168 kts | 33° |
| 2026-04-26 12:49 | 60.86850 | 26.71262 | 2093 ft | 164 kts | 40° |
| 2026-04-26 12:49 | 60.87408 | 26.73150 | 1809 ft | 150 kts | 57° |
| 2026-04-26 12:49 | 60.87686 | 26.75321 | 1513 ft | 162 kts | 65° |
| 2026-04-26 12:50 | 60.87924 | 26.77583 | 1284 ft | 163 kts | 67° |
| 2026-04-26 12:50 | 60.88181 | 26.79856 | 1042 ft | 164 kts | 65° |
| 2026-04-26 12:50 | 60.88442 | 26.82142 | 801 ft | 165 kts | 68° |
| 2026-04-26 12:50 | 60.88651 | 26.84390 | 568 ft | 148 kts | 65° |
| 2026-04-26 12:51 | 60.88841 | 26.86270 | 524 ft | 131 kts | 64° |
| 2026-04-26 12:51 | 60.89056 | 26.88207 | 487 ft | 152 kts | 68° |
| 2026-04-26 12:51 | 60.89341 | 26.90855 | 1456 ft | 223 kts | 68° |
| 2026-04-26 12:51 | 60.89803 | 26.94428 | 2337 ft | 268 kts | 69° |
| 2026-04-26 12:52 | 60.89253 | 26.97664 | 3080 ft | 241 kts | 134° |
| 2026-04-26 12:52 | 60.87701 | 26.98440 | 2855 ft | 235 kts | 201° |
| 2026-04-26 12:52 | 60.86680 | 26.96350 | 2662 ft | 202 kts | 256° |
| 2026-04-26 12:52 | 60.86208 | 26.93641 | 2295 ft | 203 kts | 262° |
| 2026-04-26 12:53 | 60.85818 | 26.90878 | 2030 ft | 200 kts | 264° |
| 2026-04-26 12:53 | 60.85434 | 26.88153 | 1912 ft | 193 kts | 264° |
| 2026-04-26 12:53 | 60.85422 | 26.85735 | 1840 ft | 153 kts | 312° |
| 2026-04-26 12:53 | 60.86242 | 26.84695 | 1696 ft | 137 kts | 351° |
| 2026-04-26 12:54 | 60.87175 | 26.84874 | 1512 ft | 136 kts | 9° |
| 2026-04-26 12:54 | 60.87987 | 26.85325 | 1383 ft | 110 kts | 15° |
| 2026-04-26 12:54 | 60.88611 | 26.86432 | 949 ft | 133 kts | 45° |
| 2026-04-26 12:54 | 60.89054 | 26.88326 | 633 ft | 156 kts | 62° |
| 2026-04-26 12:55 | 60.89295 | 26.90627 | 474 ft | 169 kts | 71° |
| 2026-04-26 12:55 | 60.89522 | 26.92973 | 484 ft | 164 kts | 71° |
| 2026-04-26 12:55 | 60.89723 | 26.95235 | 558 ft | 156 kts | 70° |
| 2026-04-26 12:55 | 60.90299 | 26.96720 | 753 ft | 164 kts | 0° |
| 2026-04-26 12:56 | 60.91196 | 26.94582 | 802 ft | 226 kts | 297° |
| 2026-04-26 12:56 | 60.91607 | 26.91711 | 1085 ft | 199 kts | 290° |
| 2026-04-26 12:56 | 60.91828 | 26.89147 | 1416 ft | 159 kts | 278° |
| 2026-04-26 12:56 | 60.91112 | 26.87207 | 1264 ft | 205 kts | 206° |
| 2026-04-26 12:57 | 60.89847 | 26.87843 | 1526 ft | 186 kts | 122° |
| 2026-04-26 12:57 | 60.89311 | 26.90292 | 700 ft | 196 kts | 85° |
| 2026-04-26 12:57 | 60.89548 | 26.92956 | 343 ft | 183 kts | 69° |
| 2026-04-26 12:58 | 60.90148 | 26.97898 | 1335 ft | 238 kts | 64° |
| 2026-04-26 12:58 | 60.91534 | 26.99891 | 2286 ft | 284 kts | 359° |
| 2026-04-26 12:58 | 60.92807 | 26.97577 | 2898 ft | 261 kts | 288° |
| 2026-04-26 12:58 | 60.92855 | 26.93989 | 2977 ft | 248 kts | 276° |
| 2026-04-26 12:59 | 60.92777 | 26.90470 | 2793 ft | 241 kts | 275° |
| 2026-04-26 12:59 | 60.92669 | 26.87188 | 2664 ft | 211 kts | 274° |
| 2026-04-26 12:59 | 60.92456 | 26.84533 | 2343 ft | 168 kts | 263° |
| 2026-04-26 12:59 | 60.91520 | 26.82891 | 1531 ft | 202 kts | 201° |
| 2026-04-26 13:00 | 60.90315 | 26.83535 | 1384 ft | 174 kts | 127° |
| 2026-04-26 13:00 | 60.89647 | 26.85551 | 1033 ft | 168 kts | 107° |
| 2026-04-26 13:00 | 60.89327 | 26.87804 | 765 ft | 162 kts | 90° |
| 2026-04-26 13:00 | 60.89296 | 26.90077 | 523 ft | 157 kts | 76° |
| 2026-04-26 13:01 | 60.89464 | 26.92161 | 357 ft | 139 kts | 68° |
| 2026-04-26 13:01 | 60.89642 | 26.93744 | 337 ft | 76 kts | 77° |
| 2026-04-26 13:01 | 60.89715 | 26.94480 | 337 ft | 44 kts | 80° |
| 2026-04-26 13:01 | 60.89773 | 26.94952 | 347 ft | 34 kts | 71° |
| 2026-04-26 13:02 | 60.89749 | 26.94964 | 343 ft | 20 kts | 269° |
| 2026-04-26 13:02 | 60.89708 | 26.94563 | 337 ft | 35 kts | 261° |
| 2026-04-26 13:02 | 60.89667 | 26.94007 | 338 ft | 42 kts | 257° |
| 2026-04-26 13:02 | 60.89557 | 26.93698 | 336 ft | 19 kts | 163° |
| 2026-04-26 13:03 | 60.89411 | 26.93772 | 337 ft | 25 kts | 167° |
| 2026-04-26 13:03 | 60.89254 | 26.93782 | 337 ft | 22 kts | 235° |
| 2026-04-26 13:03 | 60.89227 | 26.93449 | 336 ft | 22 kts | 288° |
| 2026-04-26 13:03 | 60.89245 | 26.93406 | 333 ft | 0 kts | 333° |